createdAt,value
2018-02-05T00:01:34.821Z,8.10
2018-02-05T00:04:01.788Z,7.13
2018-02-05T00:06:28.740Z,8.10
2018-02-05T00:08:55.638Z,7.67
2018-02-05T00:11:22.497Z,7.87
2018-02-05T00:13:49.423Z,8.50
2018-02-05T00:16:16.280Z,8.43
2018-02-05T00:18:43.201Z,8.10
2018-02-05T00:21:10.046Z,7.50
2018-02-05T00:23:37.314Z,8.40
2018-02-05T00:26:04.164Z,8.37
2018-02-05T00:28:31.420Z,9.10
2018-02-05T00:30:58.334Z,8.40
2018-02-05T00:33:25.226Z,8.33
2018-02-05T00:35:52.152Z,8.50
2018-02-05T00:38:19.047Z,9.53
2018-02-05T00:40:45.999Z,8.97
2018-02-05T00:43:12.946Z,9.23
2018-02-05T00:45:39.865Z,8.63
2018-02-05T00:48:07.169Z,9.90
2018-02-05T00:50:34.020Z,9.93
2018-02-05T00:53:00.878Z,8.03
2018-02-05T00:55:27.751Z,9.23
2018-02-05T00:57:54.765Z,8.83
2018-02-05T01:00:21.665Z,9.87
2018-02-05T01:02:48.633Z,8.80
2018-02-05T01:05:15.500Z,9.30
2018-02-05T01:07:42.360Z,9.33
2018-02-05T01:10:09.205Z,8.70
2018-02-05T01:12:36.144Z,9.10
2018-02-05T01:15:02.984Z,9.27
2018-02-05T01:17:29.842Z,8.50
2018-02-05T01:19:56.734Z,8.90
2018-02-05T01:22:23.799Z,9.63
2018-02-05T01:24:50.733Z,9.10
2018-02-05T01:27:19.724Z,8.80
2018-02-05T01:29:46.696Z,7.87
2018-02-05T01:32:13.552Z,8.80
2018-02-05T01:34:40.446Z,10.13
2018-02-05T01:37:07.360Z,8.03
2018-02-05T01:39:34.248Z,8.30
2018-02-05T01:42:01.195Z,8.60
2018-02-05T01:44:28.066Z,8.50
2018-02-05T01:46:54.951Z,8.27
2018-02-05T01:49:22.210Z,8.53
2018-02-05T01:51:49.076Z,8.40
2018-02-05T01:54:16.347Z,7.90
2018-02-05T01:56:43.663Z,8.27
2018-02-05T01:59:10.620Z,8.37
2018-02-05T02:01:37.472Z,8.63
2018-02-05T02:04:04.345Z,9.23
2018-02-05T02:06:31.201Z,8.90
2018-02-05T02:08:58.107Z,8.27
2018-02-05T02:11:25.441Z,9.30
2018-02-05T02:13:52.304Z,8.00
2018-02-05T02:16:19.247Z,8.37
2018-02-05T02:18:46.102Z,8.47
2018-02-05T02:21:13.046Z,8.70
2018-02-05T02:23:39.893Z,7.90
2018-02-05T02:26:06.736Z,8.80
2018-02-05T02:28:33.612Z,8.73
2018-02-05T02:31:00.607Z,8.57
2018-02-05T02:33:27.486Z,9.40
2018-02-05T02:35:54.786Z,7.87
2018-02-05T02:38:21.649Z,8.60
2018-02-05T02:40:48.496Z,8.53
2018-02-05T02:43:15.362Z,8.30
2018-02-05T02:45:42.334Z,8.33
2018-02-05T02:48:09.189Z,8.30
2018-02-05T02:50:36.136Z,8.00
2018-02-05T02:53:02.998Z,8.20
2018-02-05T02:55:29.968Z,8.97
2018-02-05T02:57:56.812Z,8.50
2018-02-05T03:00:23.674Z,7.93
2018-02-05T03:02:50.532Z,7.40
2018-02-05T03:05:17.387Z,8.50
2018-02-05T03:07:44.447Z,7.80
2018-02-05T03:10:11.404Z,7.70
2018-02-05T03:12:38.257Z,7.87
2018-02-05T03:15:05.096Z,8.10
2018-02-05T03:17:31.979Z,8.20
2018-02-05T03:19:58.955Z,8.50
2018-02-05T03:22:26.094Z,8.53
2018-02-05T03:24:52.934Z,7.50
2018-02-05T03:27:19.838Z,7.80
2018-02-05T03:29:46.768Z,9.50
2018-02-05T03:32:13.720Z,7.70
2018-02-05T03:34:41.403Z,8.10
2018-02-05T03:37:08.271Z,9.30
2018-02-05T03:39:35.220Z,9.17
2018-02-05T03:42:02.205Z,7.53
2018-02-05T03:44:29.119Z,8.67
2018-02-05T03:46:56.477Z,8.57
2018-02-05T03:49:23.758Z,7.93
2018-02-05T03:51:50.644Z,8.93
2018-02-05T03:54:17.510Z,8.23
2018-02-05T03:56:44.364Z,8.70
2018-02-05T03:59:11.301Z,8.40
2018-02-05T04:01:38.371Z,8.33
2018-02-05T04:04:05.203Z,9.83
2018-02-05T04:06:32.057Z,7.27
2018-02-05T04:08:58.921Z,9.10
2018-02-05T04:11:25.853Z,8.30
2018-02-05T04:13:53.128Z,9.43
2018-02-05T04:16:20.014Z,7.73
2018-02-05T04:18:46.855Z,8.07
2018-02-05T04:21:13.734Z,8.20
2018-02-05T04:23:40.586Z,7.87
2018-02-05T04:26:07.445Z,9.00
2018-02-05T04:28:34.401Z,9.27
2018-02-05T04:31:01.368Z,8.50
2018-02-05T04:33:28.224Z,9.10
2018-02-05T04:35:55.098Z,8.67
2018-02-05T04:38:21.972Z,8.70
2018-02-05T04:40:48.823Z,8.73
2018-02-05T04:43:15.755Z,9.20
2018-02-05T04:45:42.616Z,8.57
2018-02-05T04:48:09.459Z,8.77
2018-02-05T04:50:36.360Z,8.50
2018-02-05T04:53:03.232Z,9.20
2018-02-05T04:55:30.493Z,9.30
2018-02-05T04:57:57.454Z,9.00
2018-02-05T05:00:24.755Z,8.40
2018-02-05T05:02:51.636Z,8.63
2018-02-05T05:05:18.588Z,9.00
2018-02-05T05:07:45.451Z,8.00
2018-02-05T05:10:12.305Z,8.67
2018-02-05T05:12:39.646Z,8.10
2018-02-05T05:15:06.509Z,8.60
2018-02-05T05:17:33.404Z,7.90
2018-02-05T05:20:00.856Z,8.30
2018-02-05T05:22:27.782Z,8.73
2018-02-05T05:24:54.948Z,9.97
2018-02-05T05:27:21.831Z,9.40
2018-02-05T05:29:48.705Z,9.27
2018-02-05T05:32:15.585Z,9.23
2018-02-05T05:34:42.428Z,9.70
2018-02-05T05:37:09.372Z,8.90
2018-02-05T05:39:36.245Z,8.73
2018-02-05T05:42:03.084Z,8.83
2018-02-05T05:44:30.042Z,10.10
2018-02-05T05:46:56.947Z,10.07
2018-02-05T05:49:24.234Z,8.47
2018-02-05T05:51:51.115Z,9.43
2018-02-05T05:54:17.957Z,8.93
2018-02-05T05:56:44.828Z,9.40
2018-02-05T05:59:11.796Z,10.57
2018-02-05T06:01:38.743Z,8.93
2018-02-05T06:04:05.600Z,9.40
2018-02-05T06:06:32.515Z,11.03
2018-02-05T06:08:59.821Z,8.90
2018-02-05T06:11:27.085Z,8.80
2018-02-05T06:13:54.047Z,9.67
2018-02-05T06:16:20.909Z,8.30
2018-02-05T06:18:47.804Z,9.00
2018-02-05T06:21:14.840Z,10.10
2018-02-05T06:23:41.794Z,9.17
2018-02-05T06:26:08.659Z,9.90
2018-02-05T06:28:35.554Z,9.33
2018-02-05T06:31:02.860Z,9.47
2018-02-05T06:33:29.709Z,9.40
2018-02-05T06:35:56.573Z,9.37
2018-02-05T06:38:23.455Z,9.27
2018-02-05T06:40:50.316Z,9.27
2018-02-05T06:43:17.338Z,8.40
2018-02-05T06:45:44.637Z,9.73
2018-02-05T06:48:11.591Z,8.97
2018-02-05T06:50:50.552Z,9.10
2018-02-05T06:53:29.436Z,9.33
2018-02-05T06:56:08.116Z,9.30
2018-02-05T06:58:35.150Z,9.50
2018-02-05T07:01:02.282Z,9.17
2018-02-05T07:03:29.544Z,8.80
2018-02-05T07:05:56.847Z,8.63
2018-02-05T07:08:23.708Z,9.57
2018-02-05T07:10:50.595Z,9.07
2018-02-05T07:13:17.537Z,8.97
2018-02-05T07:15:44.456Z,9.27
2018-02-05T07:18:11.712Z,9.10
2018-02-05T07:20:38.988Z,9.50
2018-02-05T07:23:06.223Z,8.40
2018-02-05T07:25:33.229Z,9.33
2018-02-05T07:28:00.453Z,8.53
2018-02-05T07:30:27.705Z,8.23
2018-02-05T07:32:54.633Z,9.10
2018-02-05T07:35:21.528Z,8.20
2018-02-05T07:37:48.404Z,9.00
2018-02-05T07:40:15.784Z,9.03
2018-02-05T07:42:43.727Z,8.33
2018-02-05T07:45:10.664Z,8.17
2018-02-05T07:47:37.516Z,9.13
2018-02-05T07:50:04.380Z,8.23
2018-02-05T07:52:31.349Z,8.40
2018-02-05T07:54:58.284Z,8.60
2018-02-05T07:57:25.148Z,8.60
2018-02-05T07:59:52.102Z,9.10
2018-02-05T08:02:19.105Z,8.07
2018-02-05T08:04:45.972Z,9.30
2018-02-05T08:07:12.884Z,7.43
2018-02-05T08:09:39.797Z,8.23
2018-02-05T08:12:07.051Z,7.97
2018-02-05T08:14:33.901Z,8.33
2018-02-05T08:17:00.768Z,8.73
2018-02-05T08:19:27.660Z,9.20
2018-02-05T08:21:54.503Z,8.57
2018-02-05T08:24:21.477Z,8.60
2018-02-05T08:26:48.392Z,8.50
2018-02-05T08:29:15.260Z,8.63
2018-02-05T08:31:42.507Z,8.40
2018-02-05T08:34:09.376Z,7.50
2018-02-05T08:36:36.696Z,8.73
2018-02-05T08:39:03.609Z,8.40
2018-02-05T08:41:30.909Z,7.80
2018-02-05T08:43:57.750Z,8.77
2018-02-05T08:46:24.610Z,7.80
2018-02-05T08:48:51.473Z,8.33
2018-02-05T08:51:18.377Z,8.40
2018-02-05T08:53:45.314Z,7.63
2018-02-05T08:56:12.251Z,9.33
2018-02-05T08:58:39.213Z,8.77
2018-02-05T09:01:06.168Z,7.03
2018-02-05T09:03:33.059Z,9.70
2018-02-05T09:05:59.948Z,7.80
2018-02-05T09:08:26.797Z,9.17
2018-02-05T09:10:53.669Z,8.07
2018-02-05T09:13:20.575Z,8.57
2018-02-05T09:15:47.524Z,7.90
2018-02-05T09:18:14.419Z,9.13
2018-02-05T09:20:41.281Z,9.07
2018-02-05T09:23:08.144Z,7.70
2018-02-05T09:25:34.980Z,8.93
2018-02-05T09:28:01.852Z,7.97
2018-02-05T09:30:28.728Z,9.27
2018-02-05T09:32:55.975Z,8.27
2018-02-05T09:35:22.833Z,7.10
2018-02-05T09:37:49.777Z,7.73
2018-02-05T09:40:16.763Z,7.03
2018-02-05T09:42:43.680Z,6.77
2018-02-05T09:45:10.645Z,8.27
2018-02-05T09:47:37.588Z,7.43
2018-02-05T09:50:04.447Z,6.50
2018-02-05T09:52:31.412Z,7.57
2018-02-05T09:54:58.266Z,6.90
2018-02-05T09:57:25.219Z,7.07
2018-02-05T09:59:52.093Z,6.83
2018-02-05T10:02:19.048Z,7.17
2018-02-05T10:04:46.234Z,7.17
2018-02-05T10:07:13.230Z,6.57
2018-02-05T10:09:40.473Z,6.53
2018-02-05T10:12:07.333Z,7.03
2018-02-05T10:14:34.258Z,7.17
2018-02-05T10:17:01.108Z,6.67
2018-02-05T10:19:28.068Z,7.30
2018-02-05T10:21:55.028Z,6.83
2018-02-05T10:24:22.101Z,7.40
2018-02-05T10:26:48.981Z,6.63
2018-02-05T10:29:17.081Z,7.03
2018-02-05T10:31:44.335Z,6.53
2018-02-05T10:34:11.716Z,7.00
2018-02-05T10:36:38.568Z,6.27
2018-02-05T10:39:05.437Z,7.40
2018-02-05T10:41:32.333Z,6.93
2018-02-05T10:43:59.292Z,6.80
2018-02-05T10:46:26.253Z,7.13
2018-02-05T10:48:53.195Z,6.67
2018-02-05T10:51:20.028Z,7.43
2018-02-05T10:53:47.284Z,6.97
2018-02-05T10:56:14.190Z,7.37
2018-02-05T10:58:41.068Z,7.97
2018-02-05T11:01:08.029Z,7.23
2018-02-05T11:03:34.860Z,7.30
2018-02-05T11:06:01.721Z,7.80
2018-02-05T11:08:28.570Z,7.80
2018-02-05T11:10:55.437Z,6.87
2018-02-05T11:13:22.321Z,6.90
2018-02-05T11:15:49.375Z,7.03
2018-02-05T11:18:16.239Z,7.60
2018-02-05T11:20:43.233Z,7.57
2018-02-05T11:23:10.536Z,7.63
2018-02-05T11:25:37.404Z,7.43
2018-02-05T11:28:04.353Z,8.60
2018-02-05T11:30:31.322Z,7.43
2018-02-05T11:32:58.210Z,7.27
2018-02-05T11:35:25.045Z,6.73
2018-02-05T11:37:52.080Z,8.00
2018-02-05T11:40:19.351Z,7.97
2018-02-05T11:42:46.303Z,7.70
2018-02-05T11:45:13.312Z,7.10
2018-02-05T11:47:40.251Z,7.50
2018-02-05T11:50:07.189Z,8.13
2018-02-05T11:52:34.464Z,7.63
2018-02-05T11:55:01.312Z,8.30
2018-02-05T11:57:28.234Z,7.80
2018-02-05T11:59:55.589Z,8.50
2018-02-05T12:02:22.478Z,8.87
2018-02-05T12:04:49.393Z,7.90
2018-02-05T12:07:17.119Z,7.83
2018-02-05T12:09:43.988Z,7.50
2018-02-05T12:12:10.855Z,7.80
2018-02-05T12:14:37.820Z,8.20
2018-02-05T12:17:04.684Z,8.30
2018-02-05T12:19:31.632Z,7.17
2018-02-05T12:21:58.583Z,7.90
2018-02-05T12:24:25.511Z,8.03
2018-02-05T12:26:52.329Z,8.30
2018-02-05T12:29:19.245Z,8.40
2018-02-05T12:31:46.222Z,7.90
2018-02-05T12:34:13.088Z,8.40
2018-02-05T12:36:39.959Z,8.83
2018-02-05T12:39:06.796Z,8.23
2018-02-05T12:41:33.665Z,8.70
2018-02-05T12:44:00.522Z,7.37
2018-02-05T12:46:27.469Z,8.00
2018-02-05T12:48:54.410Z,7.43
2018-02-05T12:51:21.381Z,8.10
2018-02-05T12:53:48.308Z,8.03
2018-02-05T12:56:15.660Z,7.63
2018-02-05T12:58:43.021Z,7.20
2018-02-05T13:01:09.937Z,7.70
2018-02-05T13:03:36.929Z,7.47
2018-02-05T13:06:03.773Z,7.50
2018-02-05T13:08:30.620Z,7.93
2018-02-05T13:10:57.654Z,7.63
2018-02-05T13:13:24.932Z,7.37
2018-02-05T13:15:51.884Z,7.07
2018-02-05T13:18:18.737Z,7.17
2018-02-05T13:20:45.630Z,7.10
2018-02-05T13:23:12.982Z,7.20
2018-02-05T13:25:39.844Z,6.97
2018-02-05T13:28:06.697Z,7.33
2018-02-05T13:30:33.574Z,7.00
2018-02-05T13:33:00.429Z,6.17
2018-02-05T13:35:27.304Z,7.70
2018-02-05T13:37:54.233Z,6.53
2018-02-05T13:40:21.129Z,6.37
2018-02-05T13:42:48.466Z,6.23
2018-02-05T13:45:15.371Z,7.30
2018-02-05T13:47:42.263Z,6.20
2018-02-05T13:50:09.134Z,5.83
2018-02-05T13:52:36.091Z,6.23
2018-02-05T13:55:02.928Z,6.20
2018-02-05T13:57:30.300Z,6.57
2018-02-05T13:59:57.173Z,6.00
2018-02-05T14:02:24.345Z,5.30
2018-02-05T14:04:51.233Z,6.30
2018-02-05T14:07:18.105Z,5.60
2018-02-05T14:09:44.956Z,5.50
2018-02-05T14:12:12.263Z,4.93
2018-02-05T14:14:40.475Z,4.80
2018-02-05T14:17:07.407Z,4.50
2018-02-05T14:19:34.356Z,3.90
2018-02-05T14:22:01.267Z,3.97
2018-02-05T14:24:28.132Z,3.17
2018-02-05T14:26:55.012Z,4.00
2018-02-05T14:29:22.033Z,5.00
2018-02-05T14:31:49.378Z,4.77
2018-02-05T14:34:16.236Z,6.13
2018-02-05T14:36:43.141Z,5.60
2018-02-05T14:39:10.534Z,5.73
2018-02-05T14:41:37.811Z,6.60
2018-02-05T14:44:04.847Z,6.37
2018-02-05T14:46:32.092Z,6.60
2018-02-05T14:48:58.947Z,6.43
2018-02-05T14:51:26.269Z,7.00
2018-02-05T14:53:53.151Z,6.70
2018-02-05T14:56:20.028Z,7.30
2018-02-05T14:58:46.938Z,6.30
2018-02-05T15:01:13.805Z,6.70
2018-02-05T15:03:40.900Z,7.40
2018-02-05T15:06:07.775Z,6.90
2018-02-05T15:08:35.055Z,7.50
2018-02-05T15:11:01.971Z,7.33
2018-02-05T15:13:28.920Z,7.20
2018-02-05T15:15:55.976Z,7.20
2018-02-05T15:18:23.635Z,8.13
2018-02-05T15:20:50.627Z,8.63
2018-02-05T15:23:17.528Z,7.67
2018-02-05T15:25:44.390Z,7.03
2018-02-05T15:28:11.277Z,7.53
2018-02-05T15:30:38.168Z,7.87
2018-02-05T15:33:05.077Z,7.17
2018-02-05T15:35:32.077Z,7.97
2018-02-05T15:37:59.894Z,7.90
2018-02-05T15:40:26.952Z,8.03
2018-02-05T15:42:54.202Z,7.97
2018-02-05T15:45:21.061Z,7.87
2018-02-05T15:47:47.964Z,8.60
2018-02-05T15:50:14.848Z,8.53
2018-02-05T15:52:42.208Z,7.17
2018-02-05T15:55:09.073Z,7.60
2018-02-05T15:57:36.616Z,7.67
2018-02-05T16:00:03.757Z,8.30
2018-02-05T16:02:34.167Z,7.83
2018-02-05T16:05:01.438Z,7.50
2018-02-05T16:07:28.353Z,8.10
2018-02-05T16:09:55.659Z,7.47
2018-02-05T16:12:22.582Z,7.83
2018-02-05T16:14:49.536Z,8.03
2018-02-05T16:17:16.387Z,7.90
2018-02-05T16:19:43.355Z,7.13
2018-02-05T16:22:10.200Z,7.57
2018-02-05T16:24:37.085Z,7.93
2018-02-05T16:27:05.400Z,7.00
2018-02-05T16:29:32.234Z,7.20
2018-02-05T16:31:59.180Z,7.60
2018-02-05T16:34:26.465Z,7.53
2018-02-05T16:36:53.354Z,6.97
2018-02-05T16:39:20.675Z,6.67
2018-02-05T16:41:47.620Z,7.97
2018-02-05T16:44:14.588Z,7.50
2018-02-05T16:46:41.681Z,7.67
2018-02-05T16:49:08.528Z,7.67
2018-02-05T16:51:35.384Z,7.53
2018-02-05T16:54:02.271Z,7.10
2018-02-05T16:56:29.815Z,6.93
2018-02-05T16:58:56.756Z,6.17
2018-02-05T17:01:24.037Z,6.73
2018-02-05T17:03:51.318Z,6.60
2018-02-05T17:06:18.170Z,6.60
2018-02-05T17:08:45.713Z,7.00
2018-02-05T17:11:12.591Z,7.07
2018-02-05T17:13:39.456Z,6.50
2018-02-05T17:16:06.604Z,7.87
2018-02-05T17:18:33.511Z,7.03
2018-02-05T17:21:00.813Z,6.70
2018-02-05T17:23:27.716Z,7.57
2018-02-05T17:25:54.761Z,7.70
2018-02-05T17:28:21.610Z,7.37
2018-02-05T17:30:48.660Z,8.17
2018-02-05T17:33:15.626Z,7.63
2018-02-05T17:35:42.513Z,7.23
2018-02-05T17:38:09.901Z,8.30
2018-02-05T17:40:37.156Z,7.40
2018-02-05T17:43:04.203Z,8.10
2018-02-05T17:45:31.065Z,8.10
2018-02-05T17:47:57.948Z,9.00
2018-02-05T17:50:24.809Z,7.80
2018-02-05T17:52:52.134Z,10.67
2018-02-05T17:55:19.014Z,8.67
2018-02-05T17:57:46.604Z,8.37
2018-02-05T18:00:13.449Z,8.77
2018-02-05T18:02:40.364Z,8.23
2018-02-05T18:05:07.329Z,9.60
2018-02-05T18:07:34.712Z,9.60
2018-02-05T18:10:01.743Z,8.60
2018-02-05T18:12:29.014Z,9.13
2018-02-05T18:14:55.900Z,8.63
2018-02-05T18:17:22.805Z,9.00
2018-02-05T18:19:50.197Z,8.53
2018-02-05T18:22:17.494Z,7.77
2018-02-05T18:24:44.436Z,9.03
2018-02-05T18:27:11.392Z,9.40
2018-02-05T18:29:38.360Z,9.80
2018-02-05T18:32:05.294Z,8.63
2018-02-05T18:34:32.794Z,8.43
2018-02-05T18:36:59.717Z,8.63
2018-02-05T18:39:26.965Z,8.00
2018-02-05T18:41:54.257Z,9.50
2018-02-05T18:44:21.128Z,9.03
2018-02-05T18:46:48.000Z,8.77
2018-02-05T18:49:14.868Z,8.63
2018-02-05T18:51:41.904Z,8.50
2018-02-05T18:54:08.772Z,8.57
2018-02-05T18:56:47.639Z,8.70
2018-02-05T18:59:14.760Z,8.97
2018-02-05T19:01:41.621Z,8.70
2018-02-05T19:04:08.511Z,9.37
2018-02-05T19:06:35.450Z,9.80
2018-02-05T19:09:02.590Z,9.67
2018-02-05T19:11:30.199Z,8.63
2018-02-05T19:13:57.098Z,8.17
2018-02-05T19:16:24.016Z,10.23
2018-02-05T19:18:50.874Z,8.77
2018-02-05T19:21:17.747Z,8.83
2018-02-05T19:23:44.616Z,9.07
2018-02-05T19:26:11.553Z,9.03
2018-02-05T19:28:38.479Z,8.90
2018-02-05T19:31:05.376Z,10.20
2018-02-05T19:33:32.528Z,7.80
2018-02-05T19:35:59.495Z,9.07
2018-02-05T19:38:26.439Z,9.57
2018-02-05T19:40:53.385Z,8.70
2018-02-05T19:43:20.348Z,9.23
2018-02-05T19:45:47.206Z,10.07
2018-02-05T19:50:47.373Z,9.47
2018-02-05T19:53:14.266Z,9.27
2018-02-05T19:55:41.174Z,9.60
2018-02-05T19:58:08.029Z,10.20
2018-02-05T20:00:35.018Z,10.70
2018-02-05T20:03:02.105Z,9.70
2018-02-05T20:05:29.006Z,9.80
2018-02-05T20:07:55.871Z,9.13
2018-02-05T20:10:22.746Z,9.97
2018-02-05T20:12:49.590Z,10.63
2018-02-05T20:15:16.498Z,10.23
2018-02-05T20:17:43.405Z,9.80
2018-02-05T20:20:10.276Z,9.90
2018-02-05T20:22:37.230Z,10.30
2018-02-05T20:25:04.146Z,10.00
2018-02-05T20:27:31.436Z,10.57
2018-02-05T20:29:58.493Z,9.63
2018-02-05T20:32:25.401Z,10.40
2018-02-05T20:34:52.269Z,10.03
2018-02-05T20:37:19.150Z,9.80
2018-02-05T20:39:46.444Z,9.33
2018-02-05T20:42:13.302Z,9.20
2018-02-05T20:44:40.176Z,9.93
2018-02-05T20:47:07.261Z,9.63
2018-02-05T20:49:34.185Z,10.50
2018-02-05T20:52:01.090Z,9.80
2018-02-05T20:54:28.701Z,10.13
2018-02-05T20:56:55.557Z,9.10
2018-02-05T20:59:22.429Z,10.07
2018-02-05T21:01:49.712Z,9.90
2018-02-05T21:04:16.960Z,10.30
2018-02-05T21:06:43.859Z,9.90
2018-02-05T21:09:10.824Z,10.90
2018-02-05T21:11:37.665Z,9.30
2018-02-05T21:14:04.570Z,10.87
2018-02-05T21:16:32.025Z,10.03
2018-02-05T21:18:59.329Z,10.03
2018-02-05T21:21:26.190Z,10.33
2018-02-05T21:23:53.043Z,10.23
2018-02-05T21:26:19.998Z,10.07
2018-02-05T21:28:46.877Z,10.73
2018-02-05T21:31:13.740Z,9.83
2018-02-05T21:33:40.675Z,8.87
2018-02-05T21:36:07.549Z,10.43
2018-02-05T21:38:34.421Z,9.50
2018-02-05T21:41:01.432Z,10.83
2018-02-05T21:43:28.374Z,11.10
2018-02-05T21:45:55.354Z,9.70
2018-02-05T21:48:22.200Z,11.50
2018-02-05T21:50:49.063Z,11.93
2018-02-05T21:53:15.934Z,11.47
2018-02-05T21:55:42.887Z,11.57
2018-02-05T21:58:09.764Z,11.30
2018-02-05T22:00:36.632Z,11.50
2018-02-05T22:03:03.614Z,11.40
2018-02-05T22:05:30.512Z,10.60
2018-02-05T22:07:58.032Z,11.40
2018-02-05T22:10:24.978Z,10.70
2018-02-05T22:12:51.917Z,9.47
2018-02-05T22:15:18.788Z,9.87
2018-02-05T22:17:45.643Z,10.97
2018-02-05T22:20:12.517Z,10.80
2018-02-05T22:22:39.400Z,10.90
2018-02-05T22:25:06.264Z,9.50
2018-02-05T22:27:33.609Z,10.93
2018-02-05T22:30:00.478Z,11.20
2018-02-05T22:32:27.720Z,11.70
2018-02-05T22:34:54.607Z,10.27
2018-02-05T22:37:21.859Z,10.40
2018-02-05T22:39:48.768Z,10.77
2018-02-05T22:42:15.728Z,10.40
2018-02-05T22:44:42.614Z,11.00
2018-02-05T22:47:09.501Z,11.47
2018-02-05T22:49:36.438Z,10.57
2018-02-05T22:52:03.667Z,9.83
2018-02-05T22:54:30.507Z,9.10
2018-02-05T22:56:57.404Z,9.70
2018-02-05T22:59:24.367Z,10.03
2018-02-05T23:01:51.239Z,10.17
2018-02-05T23:04:18.125Z,11.00
2018-02-05T23:06:45.414Z,11.60
2018-02-05T23:09:12.668Z,11.00
2018-02-05T23:11:40.064Z,10.30
2018-02-05T23:14:07.133Z,11.63
2018-02-05T23:16:34.103Z,11.53
2018-02-05T23:19:01.066Z,11.63
2018-02-05T23:21:27.932Z,10.57
2018-02-05T23:23:54.864Z,10.50
2018-02-05T23:26:21.820Z,11.23
2018-02-05T23:28:48.663Z,10.20
2018-02-05T23:31:15.629Z,11.33
2018-02-05T23:33:42.476Z,11.20
2018-02-05T23:36:09.321Z,10.20
2018-02-05T23:38:36.227Z,11.43
2018-02-05T23:41:03.214Z,10.30
2018-02-05T23:43:30.477Z,10.80
2018-02-05T23:45:57.380Z,10.43
2018-02-05T23:48:24.760Z,10.50
2018-02-05T23:50:51.625Z,11.87
2018-02-05T23:53:18.600Z,10.20
2018-02-05T23:55:45.540Z,11.33
2018-02-05T23:58:12.391Z,11.43
